Lovely Lady — 9HIE6 — position and weather

sailwx.info

Track history (hours):
 
Tides and Currents Weather Stations Pressure Air Temp Water Temp Dewpoint Dewpoint Depression Visibility Wind Speed Wind Dir Waves Ship Positions

Lovely Lady

Last reported at 2018-Jul-19 17:51 UTC. Time now 2018-Jul-20 01:01 UTC.
Position N 54°04' E 007°25'.

Length 182 m; draft 9.4 m.

Type: Tanker. MMSI: 248536000.

Date/timePositionNaut miles runAvg speedWind from/ knotsBaromVisibWave heightAir tempDewpointWater temp
2018-Jul-19 17:51N 54°04' E 007°25'0 0.2
2018-Jul-19 16:48N 54°04' E 007°26'0 0.0
2018-Jul-19 04:30N 54°04' E 007°26'0 0.0
2018-Jul-19 03:47N 54°04' E 007°26'0 0.0
2018-Jul-18 16:11N 54°04' E 007°26'0 0.0
2018-Jul-18 15:59N 54°04' E 007°26'0 0.1
2018-Jul-18 15:29N 54°04' E 007°26'0 0.0
2018-Jul-16 22:58N 54°04' E 007°26'0 0.1
2018-Jul-16 20:07N 54°04' E 007°25'0 0.0
2018-Jul-16 19:52N 54°04' E 007°25'0 0.0
2018-Jul-16 19:16N 54°04' E 007°25'0 0.0
2018-Jul-16 18:55N 54°04' E 007°25'0 0.0
2018-Jul-16 00:57N 54°04' E 007°26'0 0.0
2018-Jul-15 23:54N 54°04' E 007°25'0 0.0
2018-Jul-15 23:30N 54°04' E 007°25'0 0.0
2018-Jul-15 23:00N 54°04' E 007°25'0 0.0
2018-Jul-15 22:30N 54°04' E 007°25'0 0.0
2018-Jul-15 21:30N 54°04' E 007°25'0 0.1
2018-Jul-15 19:57N 54°04' E 007°25'0 0.2
2018-Jul-15 19:24N 54°04' E 007°25'1 2.7
2018-Jul-15 19:00N 54°04' E 007°23'3 6.6
2018-Jul-15 18:30N 54°07' E 007°20'8210.6
2018-Jul-15 10:50N 54°02' E 005°01'412.5
2018-Jul-15 10:29N 54°01' E 004°54'2412.2
2018-Jul-15 08:32N 53°46' E 004°22'113.0
2018-Jul-15 08:28N 53°46' E 004°21'613.3
2018-Jul-15 08:00N 53°42' E 004°13'713.5
2018-Jul-15 07:29N 53°38' E 004°03'1013.6
2018-Jul-15 06:44N 53°32' E 003°49'313.3
2018-Jul-15 06:30N 53°30' E 003°46'713.6
2018-Jul-15 06:00N 53°23' E 003°41'713.7
2018-Jul-15 05:30N 53°17' E 003°36'714.2
2018-Jul-15 05:01N 53°11' E 003°31'714.4
2018-Jul-15 04:30N 53°04' E 003°26'714.6
2018-Jul-15 04:01N 52°57' E 003°22'714.6
2018-Jul-15 03:30N 52°51' E 003°17'714.6
2018-Jul-15 03:00N 52°44' E 003°11'714.5
2018-Jul-15 02:30N 52°38' E 003°06'714.2
2018-Jul-15 01:59N 52°32' E 003°00'713.8
2018-Jul-15 01:29N 52°25' E 002°55'713.2
2018-Jul-15 00:59N 52°19' E 002°50'612.6
2018-Jul-15 00:29N 52°14' E 002°45'612.0
2018-Jul-15 00:00N 52°09' E 002°41'611.5
2018-Jul-14 23:30N 52°03' E 002°42'510.8
2018-Jul-14 23:00N 51°58' E 002°40'510.7
2018-Jul-14 22:30N 51°52' E 002°38'510.8
2018-Jul-14 22:00N 51°47' E 002°35'510.5
2018-Jul-14 21:30N 51°43' E 002°31'510.6
2018-Jul-14 21:00N 51°39' E 002°26'510.5
2018-Jul-14 20:30N 51°35' E 002°20'510.9
2018-Jul-14 20:00N 51°30' E 002°15'611.3
2018-Jul-14 19:30N 51°26' E 002°09'611.4
2018-Jul-14 19:00N 51°20' E 002°07'611.6
2018-Jul-14 18:30N 51°15' E 002°05'611.5
2018-Jul-14 18:00N 51°11' E 001°57'612.0
2018-Jul-14 17:30N 51°09' E 001°49'612.3
2018-Jul-14 17:00N 51°04' E 001°42'612.6
2018-Jul-14 16:30N 50°60' E 001°35'713.1
2018-Jul-14 16:00N 50°55' E 001°28'713.5
2018-Jul-14 15:30N 50°49' E 001°24'713.4
2018-Jul-14 15:00N 50°42' E 001°21'612.9
2018-Jul-14 14:31N 50°38' E 001°13'1313.1
2018-Jul-14 13:31N 50°30' E 000°57'713.0
2018-Jul-14 13:00N 50°28' E 000°47'813.0
2018-Jul-14 12:23N 50°26' E 000°35'613.3
2018-Jul-14 11:56N 50°24' E 000°26'613.6
2018-Jul-14 11:28N 50°22' E 000°16'614.1
2018-Jul-14 11:01N 50°21' E 000°07'714.7
2018-Jul-14 10:31N 50°19' W 000°05'815.2
2018-Jul-14 10:00N 50°17' W 000°16'815.8
2018-Jul-14 09:30N 50°15' W 000°28'816.0
2018-Jul-14 09:00N 50°13' W 000°40'816.3
2018-Jul-14 08:30N 50°11' W 000°52'816.4
2018-Jul-14 08:00N 50°08' W 001°05'816.2
2018-Jul-14 07:30N 50°06' W 001°17'815.8
2018-Jul-14 07:00N 50°04' W 001°29'815.2
2018-Jul-14 06:30N 50°02' W 001°40'714.4
2018-Jul-14 06:00N 50°00' W 001°51'713.7
2018-Jul-14 05:29N 49°58' W 002°02'912.5
2018-Jul-14 04:47N 49°56' W 002°15'2111.1
2018-Jul-14 02:51N 49°51' W 002°47'2210.3
2018-Jul-14 00:46N 49°40' W 003°17'8611.9
2018-Jul-13 17:31N 48°56' W 005°10'013.8
2018-Jul-13 17:30N 48°56' W 005°10'713.5
2018-Jul-13 17:00N 48°53' W 005°19'913.5
2018-Jul-13 16:20N 48°49' W 005°32'613.4
2018-Jul-13 15:54N 48°45' W 005°38'714.0
2018-Jul-13 15:24N 48°39' W 005°43'4713.4
2018-Jul-13 11:53N 47°58' W 006°19'55311.6
2018-Jul-11 12:11N 39°08' W 009°56'212.1
2018-Jul-11 12:00N 39°06' W 009°56'612.4
2018-Jul-11 11:30N 38°60' W 009°56'612.3
2018-Jul-11 11:00N 38°54' W 009°56'612.4
2018-Jul-11 10:30N 38°48' W 009°57'612.7
2018-Jul-11 10:00N 38°41' W 009°56'612.5
2018-Jul-11 09:30N 38°35' W 009°55'612.4
2018-Jul-11 08:59N 38°29' W 009°52'612.7
2018-Jul-11 08:30N 38°23' W 009°51'1012.8
2018-Jul-11 07:45N 38°14' W 009°48'412.8
2018-Jul-11 07:24N 38°09' W 009°47'512.8
2018-Jul-11 07:00N 38°04' W 009°45'612.5
2018-Jul-11 06:30N 37°58' W 009°43'612.8
2018-Jul-11 06:00N 37°52' W 009°42'713.0
2018-Jul-11 05:30N 37°46' W 009°40'3812.6
2018-Jul-11 02:30N 37°09' W 009°29'712.4
2018-Jul-11 01:54N 37°01' W 009°27'512.6
2018-Jul-11 01:29N 36°56' W 009°25'612.4
2018-Jul-11 01:00N 36°51' W 009°23'1012.4
2018-Jul-11 00:12N 36°43' W 009°15'412.8
2018-Jul-10 23:53N 36°41' W 009°11'512.8
2018-Jul-10 23:30N 36°39' W 009°05'612.6
2018-Jul-10 23:00N 36°38' W 008°57'612.4
2018-Jul-10 22:30N 36°37' W 008°50'612.4
2018-Jul-10 22:00N 36°36' W 008°42'712.2
2018-Jul-10 21:28N 36°34' W 008°34'1012.0
2018-Jul-10 20:40N 36°32' W 008°22'211.8
2018-Jul-10 20:30N 36°32' W 008°20'13911.8
2018-Jul-10 08:47N 35°58' W 005°33'311.0
2018-Jul-10 08:30N 35°59' W 005°30'510.0
2018-Jul-10 08:00N 36°01' W 005°24'5 9.6
2018-Jul-10 07:30N 36°02' W 005°18'  
Track history (hours):
 
Tides and Currents Weather Stations Pressure Air Temp Water Temp Dewpoint Dewpoint Depression Visibility Wind Speed Wind Dir Waves Ship Positions

Lovely Lady

Last reported at 2018-Jul-19 17:51 UTC. Time now 2018-Jul-20 01:01 UTC.
Position N 54°04' E 007°25'.

Length 182 m; draft 9.4 m.

Type: Tanker. MMSI: 248536000.

Date/timePositionNaut miles runAvg speedWind from/ knotsBaromVisibWave heightAir tempDewpointWater temp
2018-Jul-19 17:51N 54°04' E 007°25'0 0.2
2018-Jul-19 16:48N 54°04' E 007°26'0 0.0
2018-Jul-19 04:30N 54°04' E 007°26'0 0.0
2018-Jul-19 03:47N 54°04' E 007°26'0 0.0
2018-Jul-18 16:11N 54°04' E 007°26'0 0.0
2018-Jul-18 15:59N 54°04' E 007°26'0 0.1
2018-Jul-18 15:29N 54°04' E 007°26'0 0.0
2018-Jul-16 22:58N 54°04' E 007°26'0 0.1
2018-Jul-16 20:07N 54°04' E 007°25'0 0.0
2018-Jul-16 19:52N 54°04' E 007°25'0 0.0
2018-Jul-16 19:16N 54°04' E 007°25'0 0.0
2018-Jul-16 18:55N 54°04' E 007°25'0 0.0
2018-Jul-16 00:57N 54°04' E 007°26'0 0.0
2018-Jul-15 23:54N 54°04' E 007°25'0 0.0
2018-Jul-15 23:30N 54°04' E 007°25'0 0.0
2018-Jul-15 23:00N 54°04' E 007°25'0 0.0
2018-Jul-15 22:30N 54°04' E 007°25'0 0.0
2018-Jul-15 21:30N 54°04' E 007°25'0 0.1
2018-Jul-15 19:57N 54°04' E 007°25'0 0.2
2018-Jul-15 19:24N 54°04' E 007°25'1 2.7
2018-Jul-15 19:00N 54°04' E 007°23'3 6.6
2018-Jul-15 18:30N 54°07' E 007°20'8210.6
2018-Jul-15 10:50N 54°02' E 005°01'412.5
2018-Jul-15 10:29N 54°01' E 004°54'2412.2
2018-Jul-15 08:32N 53°46' E 004°22'113.0
2018-Jul-15 08:28N 53°46' E 004°21'613.3
2018-Jul-15 08:00N 53°42' E 004°13'713.5
2018-Jul-15 07:29N 53°38' E 004°03'1013.6
2018-Jul-15 06:44N 53°32' E 003°49'313.3
2018-Jul-15 06:30N 53°30' E 003°46'713.6
2018-Jul-15 06:00N 53°23' E 003°41'713.7
2018-Jul-15 05:30N 53°17' E 003°36'714.2
2018-Jul-15 05:01N 53°11' E 003°31'714.4
2018-Jul-15 04:30N 53°04' E 003°26'714.6
2018-Jul-15 04:01N 52°57' E 003°22'714.6
2018-Jul-15 03:30N 52°51' E 003°17'714.6
2018-Jul-15 03:00N 52°44' E 003°11'714.5
2018-Jul-15 02:30N 52°38' E 003°06'714.2
2018-Jul-15 01:59N 52°32' E 003°00'713.8
2018-Jul-15 01:29N 52°25' E 002°55'713.2
2018-Jul-15 00:59N 52°19' E 002°50'612.6
2018-Jul-15 00:29N 52°14' E 002°45'612.0
2018-Jul-15 00:00N 52°09' E 002°41'611.5
2018-Jul-14 23:30N 52°03' E 002°42'510.8
2018-Jul-14 23:00N 51°58' E 002°40'510.7
2018-Jul-14 22:30N 51°52' E 002°38'510.8
2018-Jul-14 22:00N 51°47' E 002°35'510.5
2018-Jul-14 21:30N 51°43' E 002°31'510.6
2018-Jul-14 21:00N 51°39' E 002°26'510.5
2018-Jul-14 20:30N 51°35' E 002°20'510.9
2018-Jul-14 20:00N 51°30' E 002°15'611.3
2018-Jul-14 19:30N 51°26' E 002°09'611.4
2018-Jul-14 19:00N 51°20' E 002°07'611.6
2018-Jul-14 18:30N 51°15' E 002°05'611.5
2018-Jul-14 18:00N 51°11' E 001°57'612.0
2018-Jul-14 17:30N 51°09' E 001°49'612.3
2018-Jul-14 17:00N 51°04' E 001°42'612.6
2018-Jul-14 16:30N 50°60' E 001°35'713.1
2018-Jul-14 16:00N 50°55' E 001°28'713.5
2018-Jul-14 15:30N 50°49' E 001°24'713.4
2018-Jul-14 15:00N 50°42' E 001°21'612.9
2018-Jul-14 14:31N 50°38' E 001°13'1313.1
2018-Jul-14 13:31N 50°30' E 000°57'713.0
2018-Jul-14 13:00N 50°28' E 000°47'813.0
2018-Jul-14 12:23N 50°26' E 000°35'613.3
2018-Jul-14 11:56N 50°24' E 000°26'613.6
2018-Jul-14 11:28N 50°22' E 000°16'614.1
2018-Jul-14 11:01N 50°21' E 000°07'714.7
2018-Jul-14 10:31N 50°19' W 000°05'815.2
2018-Jul-14 10:00N 50°17' W 000°16'815.8
2018-Jul-14 09:30N 50°15' W 000°28'816.0
2018-Jul-14 09:00N 50°13' W 000°40'816.3
2018-Jul-14 08:30N 50°11' W 000°52'816.4
2018-Jul-14 08:00N 50°08' W 001°05'816.2
2018-Jul-14 07:30N 50°06' W 001°17'815.8
2018-Jul-14 07:00N 50°04' W 001°29'815.2
2018-Jul-14 06:30N 50°02' W 001°40'714.4
2018-Jul-14 06:00N 50°00' W 001°51'713.7
2018-Jul-14 05:29N 49°58' W 002°02'912.5
2018-Jul-14 04:47N 49°56' W 002°15'2111.1
2018-Jul-14 02:51N 49°51' W 002°47'2210.3
2018-Jul-14 00:46N 49°40' W 003°17'8611.9
2018-Jul-13 17:31N 48°56' W 005°10'013.8
2018-Jul-13 17:30N 48°56' W 005°10'713.5
2018-Jul-13 17:00N 48°53' W 005°19'913.5
2018-Jul-13 16:20N 48°49' W 005°32'613.4
2018-Jul-13 15:54N 48°45' W 005°38'714.0
2018-Jul-13 15:24N 48°39' W 005°43'4713.4
2018-Jul-13 11:53N 47°58' W 006°19'55311.6
2018-Jul-11 12:11N 39°08' W 009°56'212.1
2018-Jul-11 12:00N 39°06' W 009°56'612.4
2018-Jul-11 11:30N 38°60' W 009°56'612.3
2018-Jul-11 11:00N 38°54' W 009°56'612.4
2018-Jul-11 10:30N 38°48' W 009°57'612.7
2018-Jul-11 10:00N 38°41' W 009°56'612.5
2018-Jul-11 09:30N 38°35' W 009°55'612.4
2018-Jul-11 08:59N 38°29' W 009°52'612.7
2018-Jul-11 08:30N 38°23' W 009°51'1012.8
2018-Jul-11 07:45N 38°14' W 009°48'412.8
2018-Jul-11 07:24N 38°09' W 009°47'512.8
2018-Jul-11 07:00N 38°04' W 009°45'612.5
2018-Jul-11 06:30N 37°58' W 009°43'612.8
2018-Jul-11 06:00N 37°52' W 009°42'713.0
2018-Jul-11 05:30N 37°46' W 009°40'3812.6
2018-Jul-11 02:30N 37°09' W 009°29'712.4
2018-Jul-11 01:54N 37°01' W 009°27'512.6
2018-Jul-11 01:29N 36°56' W 009°25'612.4
2018-Jul-11 01:00N 36°51' W 009°23'1012.4
2018-Jul-11 00:12N 36°43' W 009°15'412.8
2018-Jul-10 23:53N 36°41' W 009°11'512.8
2018-Jul-10 23:30N 36°39' W 009°05'612.6
2018-Jul-10 23:00N 36°38' W 008°57'612.4
2018-Jul-10 22:30N 36°37' W 008°50'612.4
2018-Jul-10 22:00N 36°36' W 008°42'712.2
2018-Jul-10 21:28N 36°34' W 008°34'1012.0
2018-Jul-10 20:40N 36°32' W 008°22'211.8
2018-Jul-10 20:30N 36°32' W 008°20'13911.8
2018-Jul-10 08:47N 35°58' W 005°33'311.0
2018-Jul-10 08:30N 35°59' W 005°30'510.0
2018-Jul-10 08:00N 36°01' W 005°24'5 9.6
2018-Jul-10 07:30N 36°02' W 005°18'  

Dump ship's entire track history